sensor_id;sensor_type;location;lat;lon;timestamp;P1;durP1;ratioP1;P2;durP2;ratioP2
18443;SDS011;9350;53.176;8.194;2023-03-01T00:01:00;25.90;;;14.25;;
18443;SDS011;9350;53.176;8.194;2023-03-01T00:03:27;27.80;;;14.68;;
18443;SDS011;9350;53.176;8.194;2023-03-01T00:05:54;29.45;;;15.20;;
18443;SDS011;9350;53.176;8.194;2023-03-01T00:08:21;29.35;;;15.05;;
18443;SDS011;9350;53.176;8.194;2023-03-01T00:10:47;25.75;;;13.73;;
18443;SDS011;9350;53.176;8.194;2023-03-01T00:13:15;23.10;;;12.93;;
18443;SDS011;9350;53.176;8.194;2023-03-01T00:15:42;26.80;;;13.55;;
18443;SDS011;9350;53.176;8.194;2023-03-01T00:18:09;29.40;;;14.65;;
18443;SDS011;9350;53.176;8.194;2023-03-01T00:20:36;24.77;;;13.25;;
18443;SDS011;9350;53.176;8.194;2023-03-01T00:23:02;29.85;;;13.95;;
18443;SDS011;9350;53.176;8.194;2023-03-01T00:25:29;27.75;;;14.77;;
18443;SDS011;9350;53.176;8.194;2023-03-01T00:27:56;25.48;;;14.20;;
18443;SDS011;9350;53.176;8.194;2023-03-01T00:30:24;29.33;;;14.52;;
18443;SDS011;9350;53.176;8.194;2023-03-01T00:32:50;29.38;;;15.70;;
18443;SDS011;9350;53.176;8.194;2023-03-01T00:35:17;29.58;;;14.13;;
18443;SDS011;9350;53.176;8.194;2023-03-01T00:37:44;35.53;;;14.63;;
18443;SDS011;9350;53.176;8.194;2023-03-01T00:40:11;29.27;;;14.88;;
18443;SDS011;9350;53.176;8.194;2023-03-01T00:42:39;28.17;;;14.70;;
18443;SDS011;9350;53.176;8.194;2023-03-01T00:45:06;28.05;;;14.35;;
18443;SDS011;9350;53.176;8.194;2023-03-01T00:47:35;29.67;;;14.52;;
18443;SDS011;9350;53.176;8.194;2023-03-01T00:50:02;27.20;;;13.98;;
18443;SDS011;9350;53.176;8.194;2023-03-01T00:52:29;28.33;;;13.80;;
18443;SDS011;9350;53.176;8.194;2023-03-01T00:54:55;26.33;;;14.57;;
18443;SDS011;9350;53.176;8.194;2023-03-01T00:57:22;27.63;;;14.77;;
18443;SDS011;9350;53.176;8.194;2023-03-01T00:59:49;27.17;;;13.65;;
18443;SDS011;9350;53.176;8.194;2023-03-01T01:02:17;26.08;;;13.93;;
18443;SDS011;9350;53.176;8.194;2023-03-01T01:04:45;25.27;;;13.30;;
18443;SDS011;9350;53.176;8.194;2023-03-01T01:07:13;30.02;;;13.65;;
18443;SDS011;9350;53.176;8.194;2023-03-01T01:09:39;25.33;;;13.40;;
18443;SDS011;9350;53.176;8.194;2023-03-01T01:12:06;22.92;;;12.60;;
18443;SDS011;9350;53.176;8.194;2023-03-01T01:14:33;26.67;;;14.15;;
18443;SDS011;9350;53.176;8.194;2023-03-01T01:17:00;23.25;;;13.10;;
18443;SDS011;9350;53.176;8.194;2023-03-01T01:19:27;27.80;;;14.13;;
18443;SDS011;9350;53.176;8.194;2023-03-01T01:21:55;23.92;;;13.77;;
18443;SDS011;9350;53.176;8.194;2023-03-01T01:24:22;29.60;;;14.90;;
18443;SDS011;9350;53.176;8.194;2023-03-01T01:26:49;27.90;;;13.02;;
18443;SDS011;9350;53.176;8.194;2023-03-01T01:29:16;26.80;;;13.18;;
18443;SDS011;9350;53.176;8.194;2023-03-01T01:31:42;24.30;;;13.88;;
18443;SDS011;9350;53.176;8.194;2023-03-01T01:34:13;25.65;;;13.35;;
18443;SDS011;9350;53.176;8.194;2023-03-01T01:36:41;29.60;;;14.52;;
18443;SDS011;9350;53.176;8.194;2023-03-01T01:39:09;31.95;;;13.57;;
18443;SDS011;9350;53.176;8.194;2023-03-01T01:41:38;24.85;;;13.02;;
18443;SDS011;9350;53.176;8.194;2023-03-01T01:44:13;31.13;;;14.15;;
18443;SDS011;9350;53.176;8.194;2023-03-01T01:46:42;25.55;;;13.55;;
18443;SDS011;9350;53.176;8.194;2023-03-01T01:49:16;25.83;;;13.40;;
18443;SDS011;9350;53.176;8.194;2023-03-01T01:51:47;26.23;;;13.95;;
18443;SDS011;9350;53.176;8.194;2023-03-01T01:54:18;24.85;;;13.30;;
18443;SDS011;9350;53.176;8.194;2023-03-01T01:56:49;29.65;;;13.90;;
18443;SDS011;9350;53.176;8.194;2023-03-01T01:59:18;26.48;;;13.13;;
18443;SDS011;9350;53.176;8.194;2023-03-01T02:01:49;26.15;;;13.70;;
18443;SDS011;9350;53.176;8.194;2023-03-01T02:04:16;28.85;;;14.07;;
18443;SDS011;9350;53.176;8.194;2023-03-01T02:06:44;26.13;;;13.95;;
18443;SDS011;9350;53.176;8.194;2023-03-01T02:09:16;28.80;;;13.63;;
18443;SDS011;9350;53.176;8.194;2023-03-01T02:11:47;27.52;;;13.35;;
18443;SDS011;9350;53.176;8.194;2023-03-01T02:14:16;29.15;;;13.20;;
18443;SDS011;9350;53.176;8.194;2023-03-01T02:16:43;26.95;;;13.00;;
18443;SDS011;9350;53.176;8.194;2023-03-01T02:19:11;25.92;;;13.48;;
18443;SDS011;9350;53.176;8.194;2023-03-01T02:21:49;28.15;;;13.77;;
18443;SDS011;9350;53.176;8.194;2023-03-01T02:24:24;33.22;;;14.30;;
18443;SDS011;9350;53.176;8.194;2023-03-01T02:26:59;30.98;;;13.68;;
18443;SDS011;9350;53.176;8.194;2023-03-01T02:29:28;27.50;;;14.75;;
18443;SDS011;9350;53.176;8.194;2023-03-01T02:31:56;30.00;;;15.50;;
18443;SDS011;9350;53.176;8.194;2023-03-01T02:34:24;34.13;;;14.80;;
18443;SDS011;9350;53.176;8.194;2023-03-01T02:36:52;32.40;;;15.02;;
18443;SDS011;9350;53.176;8.194;2023-03-01T02:39:23;28.30;;;13.38;;
18443;SDS011;9350;53.176;8.194;2023-03-01T02:41:54;29.35;;;14.13;;
18443;SDS011;9350;53.176;8.194;2023-03-01T02:44:22;28.90;;;13.27;;
18443;SDS011;9350;53.176;8.194;2023-03-01T02:46:51;25.83;;;13.73;;
18443;SDS011;9350;53.176;8.194;2023-03-01T02:49:20;25.58;;;12.93;;
18443;SDS011;9350;53.176;8.194;2023-03-01T02:51:52;27.73;;;14.00;;
18443;SDS011;9350;53.176;8.194;2023-03-01T02:54:31;27.83;;;14.07;;
18443;SDS011;9350;53.176;8.194;2023-03-01T02:57:02;25.15;;;13.43;;
18443;SDS011;9350;53.176;8.194;2023-03-01T02:59:30;28.88;;;13.50;;
18443;SDS011;9350;53.176;8.194;2023-03-01T03:02:05;28.52;;;13.90;;
18443;SDS011;9350;53.176;8.194;2023-03-01T03:04:32;28.48;;;14.32;;
18443;SDS011;9350;53.176;8.194;2023-03-01T03:06:59;29.10;;;14.32;;
18443;SDS011;9350;53.176;8.194;2023-03-01T03:09:25;27.45;;;13.85;;
18443;SDS011;9350;53.176;8.194;2023-03-01T03:11:53;26.10;;;13.35;;
18443;SDS011;9350;53.176;8.194;2023-03-01T03:14:20;30.40;;;14.15;;
18443;SDS011;9350;53.176;8.194;2023-03-01T03:16:47;29.48;;;13.70;;
18443;SDS011;9350;53.176;8.194;2023-03-01T03:19:17;26.83;;;14.13;;
18443;SDS011;9350;53.176;8.194;2023-03-01T03:21:44;30.80;;;14.43;;
18443;SDS011;9350;53.176;8.194;2023-03-01T03:24:11;33.20;;;15.38;;
18443;SDS011;9350;53.176;8.194;2023-03-01T03:26:38;30.27;;;14.77;;
18443;SDS011;9350;53.176;8.194;2023-03-01T03:29:05;27.67;;;13.82;;
18443;SDS011;9350;53.176;8.194;2023-03-01T03:31:32;25.95;;;14.07;;
18443;SDS011;9350;53.176;8.194;2023-03-01T03:33:59;32.45;;;13.63;;
18443;SDS011;9350;53.176;8.194;2023-03-01T03:36:27;29.47;;;14.60;;
18443;SDS011;9350;53.176;8.194;2023-03-01T03:38:54;28.45;;;13.95;;
18443;SDS011;9350;53.176;8.194;2023-03-01T03:41:21;30.23;;;14.23;;
18443;SDS011;9350;53.176;8.194;2023-03-01T03:43:47;32.70;;;14.13;;
18443;SDS011;9350;53.176;8.194;2023-03-01T03:46:14;28.75;;;13.32;;
18443;SDS011;9350;53.176;8.194;2023-03-01T03:48:42;28.80;;;14.70;;
18443;SDS011;9350;53.176;8.194;2023-03-01T03:51:10;25.52;;;13.32;;
18443;SDS011;9350;53.176;8.194;2023-03-01T03:53:40;30.85;;;13.65;;
18443;SDS011;9350;53.176;8.194;2023-03-01T03:56:07;25.88;;;13.48;;
18443;SDS011;9350;53.176;8.194;2023-03-01T03:58:34;28.80;;;13.77;;
18443;SDS011;9350;53.176;8.194;2023-03-01T04:01:01;28.83;;;13.93;;
18443;SDS011;9350;53.176;8.194;2023-03-01T04:03:28;25.85;;;13.35;;
18443;SDS011;9350;53.176;8.194;2023-03-01T04:05:56;27.87;;;14.63;;
18443;SDS011;9350;53.176;8.194;2023-03-01T04:08:24;30.55;;;15.40;;
18443;SDS011;9350;53.176;8.194;2023-03-01T04:10:56;27.47;;;14.10;;
18443;SDS011;9350;53.176;8.194;2023-03-01T04:13:24;26.40;;;13.90;;
18443;SDS011;9350;53.176;8.194;2023-03-01T04:15:52;28.38;;;13.70;;
18443;SDS011;9350;53.176;8.194;2023-03-01T04:18:20;28.08;;;14.63;;
18443;SDS011;9350;53.176;8.194;2023-03-01T04:20:48;26.38;;;13.70;;
18443;SDS011;9350;53.176;8.194;2023-03-01T04:23:17;30.45;;;14.98;;
18443;SDS011;9350;53.176;8.194;2023-03-01T04:25:46;27.02;;;13.93;;
18443;SDS011;9350;53.176;8.194;2023-03-01T04:28:19;25.60;;;14.45;;
18443;SDS011;9350;53.176;8.194;2023-03-01T04:30:47;29.20;;;14.48;;
18443;SDS011;9350;53.176;8.194;2023-03-01T04:33:13;25.45;;;13.73;;
18443;SDS011;9350;53.176;8.194;2023-03-01T04:35:40;21.48;;;12.98;;
18443;SDS011;9350;53.176;8.194;2023-03-01T04:38:07;24.02;;;13.25;;
18443;SDS011;9350;53.176;8.194;2023-03-01T04:40:34;23.92;;;13.25;;
18443;SDS011;9350;53.176;8.194;2023-03-01T04:43:02;23.38;;;13.35;;
18443;SDS011;9350;53.176;8.194;2023-03-01T04:45:30;26.02;;;12.85;;
18443;SDS011;9350;53.176;8.194;2023-03-01T04:47:59;21.45;;;12.38;;
18443;SDS011;9350;53.176;8.194;2023-03-01T04:50:26;24.85;;;13.18;;
18443;SDS011;9350;53.176;8.194;2023-03-01T04:52:52;22.23;;;12.55;;
18443;SDS011;9350;53.176;8.194;2023-03-01T04:55:19;23.45;;;12.95;;
18443;SDS011;9350;53.176;8.194;2023-03-01T04:57:46;25.45;;;12.85;;
18443;SDS011;9350;53.176;8.194;2023-03-01T05:00:13;23.33;;;12.93;;
18443;SDS011;9350;53.176;8.194;2023-03-01T05:02:49;24.73;;;13.45;;
18443;SDS011;9350;53.176;8.194;2023-03-01T05:05:19;23.13;;;12.15;;
18443;SDS011;9350;53.176;8.194;2023-03-01T05:07:50;22.50;;;11.70;;
18443;SDS011;9350;53.176;8.194;2023-03-01T05:10:17;22.73;;;11.95;;
18443;SDS011;9350;53.176;8.194;2023-03-01T05:12:44;21.03;;;12.10;;
18443;SDS011;9350;53.176;8.194;2023-03-01T05:15:11;22.00;;;12.68;;
18443;SDS011;9350;53.176;8.194;2023-03-01T05:17:39;23.40;;;12.80;;
18443;SDS011;9350;53.176;8.194;2023-03-01T05:20:08;23.15;;;12.13;;
18443;SDS011;9350;53.176;8.194;2023-03-01T05:22:36;26.30;;;13.70;;
18443;SDS011;9350;53.176;8.194;2023-03-01T05:25:03;24.67;;;12.85;;
18443;SDS011;9350;53.176;8.194;2023-03-01T05:27:30;24.20;;;13.15;;
18443;SDS011;9350;53.176;8.194;2023-03-01T05:29:57;25.48;;;13.02;;
18443;SDS011;9350;53.176;8.194;2023-03-01T05:32:24;25.80;;;13.48;;
18443;SDS011;9350;53.176;8.194;2023-03-01T05:34:51;25.60;;;12.90;;
18443;SDS011;9350;53.176;8.194;2023-03-01T05:37:20;26.45;;;12.95;;
18443;SDS011;9350;53.176;8.194;2023-03-01T05:39:47;26.83;;;14.02;;
18443;SDS011;9350;53.176;8.194;2023-03-01T05:42:15;25.73;;;13.27;;
18443;SDS011;9350;53.176;8.194;2023-03-01T05:44:42;25.98;;;13.50;;
18443;SDS011;9350;53.176;8.194;2023-03-01T05:47:08;25.20;;;12.52;;
18443;SDS011;9350;53.176;8.194;2023-03-01T05:49:35;26.98;;;13.32;;
18443;SDS011;9350;53.176;8.194;2023-03-01T05:52:02;24.55;;;13.00;;
18443;SDS011;9350;53.176;8.194;2023-03-01T05:54:30;23.85;;;13.30;;
18443;SDS011;9350;53.176;8.194;2023-03-01T05:56:56;25.90;;;13.38;;
18443;SDS011;9350;53.176;8.194;2023-03-01T05:59:23;24.35;;;12.70;;
18443;SDS011;9350;53.176;8.194;2023-03-01T06:01:50;24.95;;;13.05;;
18443;SDS011;9350;53.176;8.194;2023-03-01T06:04:16;24.67;;;12.55;;
18443;SDS011;9350;53.176;8.194;2023-03-01T06:06:43;22.88;;;12.77;;
18443;SDS011;9350;53.176;8.194;2023-03-01T06:09:10;23.08;;;13.45;;
18443;SDS011;9350;53.176;8.194;2023-03-01T06:11:38;25.17;;;12.70;;
18443;SDS011;9350;53.176;8.194;2023-03-01T06:14:05;24.42;;;13.07;;
18443;SDS011;9350;53.176;8.194;2023-03-01T06:16:35;30.90;;;13.13;;
18443;SDS011;9350;53.176;8.194;2023-03-01T06:19:02;26.52;;;13.52;;
18443;SDS011;9350;53.176;8.194;2023-03-01T06:21:28;30.65;;;12.25;;
18443;SDS011;9350;53.176;8.194;2023-03-01T06:23:55;24.80;;;12.70;;
18443;SDS011;9350;53.176;8.194;2023-03-01T06:26:22;23.30;;;12.73;;
18443;SDS011;9350;53.176;8.194;2023-03-01T06:28:50;21.70;;;12.17;;
18443;SDS011;9350;53.176;8.194;2023-03-01T06:31:16;27.42;;;12.82;;
18443;SDS011;9350;53.176;8.194;2023-03-01T06:33:43;26.70;;;13.88;;
18443;SDS011;9350;53.176;8.194;2023-03-01T06:36:10;24.70;;;12.67;;
18443;SDS011;9350;53.176;8.194;2023-03-01T06:38:37;26.63;;;13.50;;
18443;SDS011;9350;53.176;8.194;2023-03-01T06:41:05;24.75;;;12.70;;
18443;SDS011;9350;53.176;8.194;2023-03-01T06:43:32;25.52;;;13.52;;
18443;SDS011;9350;53.176;8.194;2023-03-01T06:46:02;25.20;;;12.88;;
18443;SDS011;9350;53.176;8.194;2023-03-01T06:48:30;25.48;;;13.95;;
18443;SDS011;9350;53.176;8.194;2023-03-01T06:50:57;28.00;;;13.95;;
18443;SDS011;9350;53.176;8.194;2023-03-01T06:53:25;29.23;;;14.10;;
18443;SDS011;9350;53.176;8.194;2023-03-01T06:55:53;32.85;;;15.55;;
18443;SDS011;9350;53.176;8.194;2023-03-01T06:58:21;34.50;;;15.85;;
18443;SDS011;9350;53.176;8.194;2023-03-01T07:00:47;32.03;;;16.20;;
18443;SDS011;9350;53.176;8.194;2023-03-01T07:03:15;31.52;;;15.63;;
18443;SDS011;9350;53.176;8.194;2023-03-01T07:05:42;31.70;;;15.43;;
18443;SDS011;9350;53.176;8.194;2023-03-01T07:08:09;30.00;;;15.43;;
18443;SDS011;9350;53.176;8.194;2023-03-01T07:10:36;33.20;;;16.23;;
18443;SDS011;9350;53.176;8.194;2023-03-01T07:13:03;34.72;;;15.95;;
18443;SDS011;9350;53.176;8.194;2023-03-01T07:15:31;41.00;;;17.98;;
18443;SDS011;9350;53.176;8.194;2023-03-01T07:17:58;34.83;;;16.98;;
18443;SDS011;9350;53.176;8.194;2023-03-01T07:20:26;36.40;;;17.85;;
18443;SDS011;9350;53.176;8.194;2023-03-01T07:22:53;33.50;;;15.98;;
18443;SDS011;9350;53.176;8.194;2023-03-01T07:25:21;34.58;;;17.00;;
18443;SDS011;9350;53.176;8.194;2023-03-01T07:27:48;40.22;;;17.38;;
18443;SDS011;9350;53.176;8.194;2023-03-01T07:30:16;33.25;;;16.10;;
18443;SDS011;9350;53.176;8.194;2023-03-01T07:32:43;32.58;;;16.23;;
18443;SDS011;9350;53.176;8.194;2023-03-01T07:35:10;34.25;;;16.58;;
18443;SDS011;9350;53.176;8.194;2023-03-01T07:37:38;33.97;;;16.85;;
18443;SDS011;9350;53.176;8.194;2023-03-01T07:40:05;32.55;;;16.17;;
18443;SDS011;9350;53.176;8.194;2023-03-01T07:42:33;34.38;;;17.20;;
18443;SDS011;9350;53.176;8.194;2023-03-01T07:45:00;32.85;;;15.55;;
18443;SDS011;9350;53.176;8.194;2023-03-01T07:47:26;35.70;;;17.00;;
18443;SDS011;9350;53.176;8.194;2023-03-01T07:49:53;33.92;;;17.27;;
18443;SDS011;9350;53.176;8.194;2023-03-01T07:52:20;34.78;;;16.70;;
18443;SDS011;9350;53.176;8.194;2023-03-01T07:54:48;36.63;;;16.83;;
18443;SDS011;9350;53.176;8.194;2023-03-01T07:57:15;32.83;;;16.52;;
18443;SDS011;9350;53.176;8.194;2023-03-01T07:59:41;33.53;;;16.60;;
18443;SDS011;9350;53.176;8.194;2023-03-01T08:02:08;35.40;;;17.58;;
18443;SDS011;9350;53.176;8.194;2023-03-01T08:04:36;30.30;;;15.40;;
18443;SDS011;9350;53.176;8.194;2023-03-01T08:07:04;30.55;;;16.05;;
18443;SDS011;9350;53.176;8.194;2023-03-01T08:09:31;31.08;;;15.45;;
18443;SDS011;9350;53.176;8.194;2023-03-01T08:12:01;33.38;;;14.77;;
18443;SDS011;9350;53.176;8.194;2023-03-01T08:14:29;37.38;;;16.88;;
18443;SDS011;9350;53.176;8.194;2023-03-01T08:16:56;31.90;;;16.13;;
18443;SDS011;9350;53.176;8.194;2023-03-01T08:19:23;32.85;;;16.23;;
18443;SDS011;9350;53.176;8.194;2023-03-01T08:21:49;37.55;;;18.20;;
18443;SDS011;9350;53.176;8.194;2023-03-01T08:24:16;38.78;;;19.05;;
18443;SDS011;9350;53.176;8.194;2023-03-01T08:26:43;33.15;;;16.88;;
18443;SDS011;9350;53.176;8.194;2023-03-01T08:29:11;35.45;;;16.80;;
18443;SDS011;9350;53.176;8.194;2023-03-01T08:31:38;30.35;;;16.27;;
18443;SDS011;9350;53.176;8.194;2023-03-01T08:34:06;33.45;;;16.27;;
18443;SDS011;9350;53.176;8.194;2023-03-01T08:36:35;36.80;;;16.55;;
18443;SDS011;9350;53.176;8.194;2023-03-01T08:39:05;34.47;;;17.98;;
18443;SDS011;9350;53.176;8.194;2023-03-01T08:41:32;42.15;;;19.23;;
18443;SDS011;9350;53.176;8.194;2023-03-01T08:43:58;60.03;;;30.23;;
18443;SDS011;9350;53.176;8.194;2023-03-01T08:46:27;36.15;;;20.65;;
18443;SDS011;9350;53.176;8.194;2023-03-01T08:48:55;31.98;;;15.98;;
18443;SDS011;9350;53.176;8.194;2023-03-01T08:51:22;28.80;;;16.02;;
18443;SDS011;9350;53.176;8.194;2023-03-01T08:53:49;28.15;;;15.40;;
18443;SDS011;9350;53.176;8.194;2023-03-01T08:56:17;29.95;;;14.93;;
18443;SDS011;9350;53.176;8.194;2023-03-01T08:58:44;31.23;;;15.95;;
18443;SDS011;9350;53.176;8.194;2023-03-01T09:01:13;28.20;;;15.02;;
18443;SDS011;9350;53.176;8.194;2023-03-01T09:03:42;24.58;;;13.50;;
18443;SDS011;9350;53.176;8.194;2023-03-01T09:06:10;24.33;;;12.70;;
18443;SDS011;9350;53.176;8.194;2023-03-01T09:08:38;25.77;;;12.52;;
18443;SDS011;9350;53.176;8.194;2023-03-01T09:11:06;22.15;;;11.38;;
18443;SDS011;9350;53.176;8.194;2023-03-01T09:13:34;22.10;;;10.73;;
18443;SDS011;9350;53.176;8.194;2023-03-01T09:16:03;22.55;;;11.85;;
18443;SDS011;9350;53.176;8.194;2023-03-01T09:18:31;23.10;;;11.85;;
18443;SDS011;9350;53.176;8.194;2023-03-01T09:21:04;17.70;;;10.60;;
18443;SDS011;9350;53.176;8.194;2023-03-01T09:23:32;21.63;;;9.80;;
18443;SDS011;9350;53.176;8.194;2023-03-01T09:25:59;17.90;;;10.13;;
18443;SDS011;9350;53.176;8.194;2023-03-01T09:28:25;17.35;;;9.95;;
18443;SDS011;9350;53.176;8.194;2023-03-01T09:30:52;17.00;;;9.98;;
18443;SDS011;9350;53.176;8.194;2023-03-01T09:33:19;16.50;;;9.77;;
18443;SDS011;9350;53.176;8.194;2023-03-01T09:35:45;15.68;;;8.38;;
18443;SDS011;9350;53.176;8.194;2023-03-01T09:38:14;12.70;;;7.90;;
18443;SDS011;9350;53.176;8.194;2023-03-01T09:40:43;17.83;;;8.00;;
18443;SDS011;9350;53.176;8.194;2023-03-01T09:43:14;11.20;;;6.88;;
18443;SDS011;9350;53.176;8.194;2023-03-01T09:45:47;14.65;;;7.18;;
18443;SDS011;9350;53.176;8.194;2023-03-01T09:48:18;12.52;;;6.90;;
18443;SDS011;9350;53.176;8.194;2023-03-01T09:50:48;11.65;;;6.35;;
18443;SDS011;9350;53.176;8.194;2023-03-01T09:53:18;13.23;;;6.50;;
18443;SDS011;9350;53.176;8.194;2023-03-01T09:55:48;11.30;;;6.13;;
18443;SDS011;9350;53.176;8.194;2023-03-01T10:01:22;11.27;;;6.38;;
18443;SDS011;9350;53.176;8.194;2023-03-01T10:04:00;10.45;;;6.22;;
18443;SDS011;9350;53.176;8.194;2023-03-01T10:06:36;10.73;;;5.30;;
18443;SDS011;9350;53.176;8.194;2023-03-01T10:09:07;9.00;;;5.40;;
18443;SDS011;9350;53.176;8.194;2023-03-01T10:11:41;9.55;;;5.32;;
18443;SDS011;9350;53.176;8.194;2023-03-01T10:14:14;9.75;;;5.72;;
18443;SDS011;9350;53.176;8.194;2023-03-01T10:16:49;11.00;;;5.25;;
18443;SDS011;9350;53.176;8.194;2023-03-01T10:19:20;10.02;;;5.72;;
18443;SDS011;9350;53.176;8.194;2023-03-01T10:21:51;8.70;;;5.72;;
18443;SDS011;9350;53.176;8.194;2023-03-01T10:24:20;13.80;;;5.97;;
18443;SDS011;9350;53.176;8.194;2023-03-01T10:26:48;8.43;;;5.78;;
18443;SDS011;9350;53.176;8.194;2023-03-01T10:29:21;10.77;;;5.57;;
18443;SDS011;9350;53.176;8.194;2023-03-01T10:31:53;8.65;;;5.65;;
18443;SDS011;9350;53.176;8.194;2023-03-01T10:34:21;6.88;;;4.50;;
18443;SDS011;9350;53.176;8.194;2023-03-01T10:36:54;6.57;;;4.55;;
18443;SDS011;9350;53.176;8.194;2023-03-01T10:39:25;9.02;;;4.70;;
18443;SDS011;9350;53.176;8.194;2023-03-01T10:41:56;8.38;;;5.75;;
18443;SDS011;9350;53.176;8.194;2023-03-01T10:44:38;8.45;;;4.80;;
18443;SDS011;9350;53.176;8.194;2023-03-01T10:47:14;8.68;;;5.30;;
18443;SDS011;9350;53.176;8.194;2023-03-01T10:49:53;10.98;;;6.20;;
18443;SDS011;9350;53.176;8.194;2023-03-01T10:52:22;10.23;;;6.25;;
18443;SDS011;9350;53.176;8.194;2023-03-01T10:54:54;10.23;;;5.63;;
18443;SDS011;9350;53.176;8.194;2023-03-01T10:57:33;10.38;;;6.35;;
18443;SDS011;9350;53.176;8.194;2023-03-01T11:03:00;12.48;;;6.90;;
18443;SDS011;9350;53.176;8.194;2023-03-01T11:05:29;10.98;;;6.65;;
18443;SDS011;9350;53.176;8.194;2023-03-01T11:07:58;13.23;;;7.97;;
18443;SDS011;9350;53.176;8.194;2023-03-01T11:10:30;13.50;;;8.13;;
18443;SDS011;9350;53.176;8.194;2023-03-01T11:13:08;14.68;;;7.80;;
18443;SDS011;9350;53.176;8.194;2023-03-01T11:15:40;14.52;;;7.82;;
18443;SDS011;9350;53.176;8.194;2023-03-01T11:18:17;12.75;;;7.60;;
18443;SDS011;9350;53.176;8.194;2023-03-01T11:20:46;12.68;;;7.65;;
18443;SDS011;9350;53.176;8.194;2023-03-01T11:23:14;14.85;;;8.32;;
18443;SDS011;9350;53.176;8.194;2023-03-01T11:25:43;13.73;;;8.05;;
18443;SDS011;9350;53.176;8.194;2023-03-01T11:28:15;16.08;;;9.43;;
18443;SDS011;9350;53.176;8.194;2023-03-01T11:30:45;18.80;;;9.00;;
18443;SDS011;9350;53.176;8.194;2023-03-01T11:33:20;16.67;;;9.55;;
18443;SDS011;9350;53.176;8.194;2023-03-01T11:36:00;20.58;;;10.15;;
18443;SDS011;9350;53.176;8.194;2023-03-01T11:38:32;17.50;;;9.73;;
18443;SDS011;9350;53.176;8.194;2023-03-01T11:41:04;24.05;;;11.80;;
18443;SDS011;9350;53.176;8.194;2023-03-01T11:43:35;21.42;;;10.98;;
18443;SDS011;9350;53.176;8.194;2023-03-01T11:49:01;19.92;;;10.77;;
18443;SDS011;9350;53.176;8.194;2023-03-01T11:51:42;18.88;;;10.63;;
18443;SDS011;9350;53.176;8.194;2023-03-01T11:54:20;18.98;;;11.02;;
18443;SDS011;9350;53.176;8.194;2023-03-01T11:56:57;21.13;;;11.27;;
18443;SDS011;9350;53.176;8.194;2023-03-01T11:59:39;17.48;;;11.13;;
18443;SDS011;9350;53.176;8.194;2023-03-01T12:02:22;24.67;;;11.65;;
18443;SDS011;9350;53.176;8.194;2023-03-01T12:08:01;25.42;;;11.98;;
18443;SDS011;9350;53.176;8.194;2023-03-01T12:10:37;22.40;;;11.60;;
18443;SDS011;9350;53.176;8.194;2023-03-01T12:13:23;20.67;;;11.30;;
18443;SDS011;9350;53.176;8.194;2023-03-01T12:16:09;22.40;;;11.65;;
18443;SDS011;9350;53.176;8.194;2023-03-01T12:21:35;25.00;;;12.25;;
18443;SDS011;9350;53.176;8.194;2023-03-01T12:24:22;19.08;;;11.43;;
18443;SDS011;9350;53.176;8.194;2023-03-01T12:27:16;23.27;;;11.45;;
18443;SDS011;9350;53.176;8.194;2023-03-01T12:29:56;21.30;;;11.35;;
18443;SDS011;9350;53.176;8.194;2023-03-01T12:32:36;25.70;;;11.85;;
18443;SDS011;9350;53.176;8.194;2023-03-01T12:35:31;22.30;;;12.38;;
18443;SDS011;9350;53.176;8.194;2023-03-01T12:38:32;22.38;;;12.52;;
18443;SDS011;9350;53.176;8.194;2023-03-01T12:41:09;24.27;;;11.48;;
18443;SDS011;9350;53.176;8.194;2023-03-01T12:43:51;20.52;;;11.73;;
18443;SDS011;9350;53.176;8.194;2023-03-01T12:46:28;21.73;;;12.07;;
18443;SDS011;9350;53.176;8.194;2023-03-01T12:49:06;20.95;;;11.75;;
18443;SDS011;9350;53.176;8.194;2023-03-01T12:51:38;20.98;;;11.57;;
18443;SDS011;9350;53.176;8.194;2023-03-01T12:54:07;25.88;;;11.60;;
18443;SDS011;9350;53.176;8.194;2023-03-01T12:56:40;25.25;;;12.15;;
18443;SDS011;9350;53.176;8.194;2023-03-01T12:59:11;20.60;;;11.18;;
18443;SDS011;9350;53.176;8.194;2023-03-01T13:01:48;18.45;;;11.43;;
18443;SDS011;9350;53.176;8.194;2023-03-01T13:04:21;19.48;;;10.68;;
18443;SDS011;9350;53.176;8.194;2023-03-01T13:06:57;19.25;;;10.75;;
18443;SDS011;9350;53.176;8.194;2023-03-01T13:09:34;18.13;;;10.80;;
18443;SDS011;9350;53.176;8.194;2023-03-01T13:15:24;20.42;;;11.82;;
18443;SDS011;9350;53.176;8.194;2023-03-01T13:17:56;25.77;;;13.75;;
18443;SDS011;9350;53.176;8.194;2023-03-01T13:20:25;24.20;;;12.30;;
18443;SDS011;9350;53.176;8.194;2023-03-01T13:23:09;20.50;;;11.85;;
18443;SDS011;9350;53.176;8.194;2023-03-01T13:28:46;19.13;;;10.93;;
18443;SDS011;9350;53.176;8.194;2023-03-01T13:34:43;18.10;;;11.10;;
18443;SDS011;9350;53.176;8.194;2023-03-01T13:37:18;22.52;;;11.43;;
18443;SDS011;9350;53.176;8.194;2023-03-01T13:40:00;21.13;;;11.48;;
18443;SDS011;9350;53.176;8.194;2023-03-01T13:42:52;21.05;;;12.18;;
18443;SDS011;9350;53.176;8.194;2023-03-01T13:45:21;21.77;;;11.90;;
18443;SDS011;9350;53.176;8.194;2023-03-01T13:47:53;21.95;;;11.18;;
18443;SDS011;9350;53.176;8.194;2023-03-01T13:50:25;17.73;;;11.60;;
18443;SDS011;9350;53.176;8.194;2023-03-01T13:52:55;20.15;;;10.98;;
18443;SDS011;9350;53.176;8.194;2023-03-01T13:55:25;17.95;;;10.80;;
18443;SDS011;9350;53.176;8.194;2023-03-01T13:57:59;19.83;;;11.55;;
18443;SDS011;9350;53.176;8.194;2023-03-01T14:00:32;17.35;;;10.48;;
18443;SDS011;9350;53.176;8.194;2023-03-01T14:03:01;24.75;;;11.55;;
18443;SDS011;9350;53.176;8.194;2023-03-01T14:05:31;16.38;;;10.38;;
18443;SDS011;9350;53.176;8.194;2023-03-01T14:07:58;19.50;;;10.93;;
18443;SDS011;9350;53.176;8.194;2023-03-01T14:10:25;19.85;;;10.77;;
18443;SDS011;9350;53.176;8.194;2023-03-01T14:13:02;18.27;;;11.07;;
18443;SDS011;9350;53.176;8.194;2023-03-01T14:15:45;16.95;;;10.98;;
18443;SDS011;9350;53.176;8.194;2023-03-01T14:18:20;17.83;;;11.00;;
18443;SDS011;9350;53.176;8.194;2023-03-01T14:20:52;17.77;;;10.85;;
18443;SDS011;9350;53.176;8.194;2023-03-01T14:23:20;17.98;;;11.00;;
18443;SDS011;9350;53.176;8.194;2023-03-01T14:25:48;22.02;;;11.35;;
18443;SDS011;9350;53.176;8.194;2023-03-01T14:28:17;22.02;;;11.60;;
18443;SDS011;9350;53.176;8.194;2023-03-01T14:30:46;17.92;;;11.05;;
18443;SDS011;9350;53.176;8.194;2023-03-01T14:33:19;21.58;;;11.63;;
18443;SDS011;9350;53.176;8.194;2023-03-01T14:35:53;20.88;;;12.05;;
18443;SDS011;9350;53.176;8.194;2023-03-01T14:38:23;25.48;;;13.90;;
18443;SDS011;9350;53.176;8.194;2023-03-01T14:40:55;22.70;;;12.52;;
18443;SDS011;9350;53.176;8.194;2023-03-01T14:43:24;23.80;;;14.00;;
18443;SDS011;9350;53.176;8.194;2023-03-01T14:45:51;26.50;;;14.48;;
18443;SDS011;9350;53.176;8.194;2023-03-01T14:48:18;27.48;;;15.40;;
18443;SDS011;9350;53.176;8.194;2023-03-01T14:50:45;23.05;;;13.60;;
18443;SDS011;9350;53.176;8.194;2023-03-01T14:53:16;23.05;;;13.35;;
18443;SDS011;9350;53.176;8.194;2023-03-01T14:55:46;24.35;;;13.73;;
18443;SDS011;9350;53.176;8.194;2023-03-01T14:58:15;23.75;;;13.70;;
18443;SDS011;9350;53.176;8.194;2023-03-01T15:00:46;27.33;;;14.57;;
18443;SDS011;9350;53.176;8.194;2023-03-01T15:03:17;25.00;;;14.27;;
18443;SDS011;9350;53.176;8.194;2023-03-01T15:05:49;24.25;;;13.68;;
18443;SDS011;9350;53.176;8.194;2023-03-01T15:08:21;26.77;;;14.63;;
18443;SDS011;9350;53.176;8.194;2023-03-01T15:10:59;23.80;;;13.77;;
18443;SDS011;9350;53.176;8.194;2023-03-01T15:13:30;25.80;;;14.73;;
18443;SDS011;9350;53.176;8.194;2023-03-01T15:16:01;24.15;;;14.65;;